Terminal Aerodrome Forecast
Issued by NWS

Home | Current Version | Previous Version | Text Only | Print | Product List | Glossary On
Versions: 1 2 3 4 5 6 7 8 9 10 11 12 13
000
FTUS46 KSEW 270500
TAFBLI
TAF
KBLI 270536Z 2706/2806 16010KT P6SM SCT025 OVC040
     FM271400 16010KT P6SM SCT035 OVC050
     FM272000 18006KT P6SM SCT050 BKN100
     FM280000 VRB03KT P6SM SCT100=

USA.gov is the U.S. government's official web portal to all federal, state and local government web resources and services.